Lefor, ND (58641)

12:04 AM MDT on August 04, 2015 (GMT -0600)
Dickinson Municipal | | Change Station
CLOSE
Current Station
Airport
Location: Dickinson,
Elevation: 2592 ft
Nearby Weather Stations

Elev 2592 ft 46.80 °N, 102.80 °W | Updated 8 minutes ago

Clear
Clear
57 °F
Feels Like 57 °F
N
9
Wind Variable Wind from East

Today
High -- | Low -- °F
--% Chance of Precip.
Yesterday
High -- | Low -- °F
Precip. -- in
5:34 AM 8:18 PM
Waning Gibbous, 80% visible
Pressure 29.94 in
Visibility 10.0 miles
Clouds Clear
Dew Point 49 °F
Humidity 74%
Rainfall 0.00 in
Snow Depth Not available.
UV 0 out of 12
Pollen 7.00 out of 12
Air Quality Not available.
Flu Activity Not available.
METAR KDIK 040556Z AUTO 10008KT 10SM CLR 14/09 A2998 RMK AO2 SLP139 T01390094 10272 20139 50002

More Conditions Fewer Conditions

Pressure 29.94 in
Visibility 10.0 miles
Clouds Clear
Dew Point 49 °F
Humidity 74%
Rainfall 0.00 in
Snow Depth Not available.
UV 0 out of 12
Pollen 7.00 out of 12
Air Quality Not available.
Flu Activity Not available.
METAR KDIK 040556Z AUTO 10008KT 10SM CLR 14/09 A2998 RMK AO2 SLP139 T01390094 10272 20139 50002

More Conditions Fewer Conditions

10-Day Weather Forecast

×

Almanac

Astronomy

Aug. 04, 2015 Rise Set
Actual Time
Civil Twilight
Nautical Twilight
Astronomical Twilight
Moon
Length of Visible Light
Length of Day
Tomorrow will be .
, % of the Moon is Illuminated

Today's Extremes

State Highs State Lows

Community

WunderPhotos

Upload Photos

1,843,870 photos uploaded!

WunderBlogs® & News

Nearby

Air Quality

  Air Quality AQ Index Pollutant
Not available.

Snow Depth

Station Depth Elevation

Earthquake Activity

City Distance Mag. Time & Date
Minimum magnitude displayed is 2.5.

Coastal Water Temperatures

Place Temperature

Stations

Nearby Weather Stations

Station Location Temp. Windchill Dew Point Humidity Wind Precip. Elev Updated Type